createdAt,value
2023-04-01T00:00:02.576Z,16.5
2023-04-01T00:01:04.083Z,16.4
2023-04-01T00:02:06.000Z,16.5
2023-04-01T00:03:08.351Z,16.4
2023-04-01T00:04:10.729Z,16.6
2023-04-01T00:05:12.722Z,16.5
2023-04-01T00:06:14.792Z,16.5
2023-04-01T00:07:16.905Z,16.5
2023-04-01T00:08:19.023Z,16.6
2023-04-01T00:09:21.166Z,16.5
2023-04-01T00:10:23.331Z,16.6
2023-04-01T00:11:25.239Z,16.5
2023-04-01T00:12:27.156Z,16.6
2023-04-01T00:13:29.062Z,16.6
2023-04-01T00:14:31.200Z,16.5
2023-04-01T00:15:33.787Z,16.6
2023-04-01T00:16:36.305Z,16.5
2023-04-01T00:17:38.545Z,16.5
2023-04-01T00:18:40.859Z,16.5
2023-04-01T00:19:42.960Z,16.6
2023-04-01T00:20:45.080Z,16.5
2023-04-01T00:21:47.230Z,16.6
2023-04-01T00:22:49.149Z,16.5
2023-04-01T00:23:50.852Z,16.4
2023-04-01T00:24:53.098Z,16.6
2023-04-01T00:25:55.196Z,16.5
2023-04-01T00:26:57.090Z,16.6
2023-04-01T00:27:59.177Z,16.6
2023-04-01T00:29:01.306Z,16.6
2023-04-01T00:30:03.294Z,16.7
2023-04-01T00:31:05.615Z,16.5
2023-04-01T00:32:08.076Z,16.7
2023-04-01T00:33:10.314Z,16.6
2023-04-01T00:34:12.441Z,16.6
2023-04-01T00:35:14.535Z,16.6
2023-04-01T00:36:16.667Z,16.6
2023-04-01T00:37:18.943Z,16.7
2023-04-01T00:38:20.841Z,16.6
2023-04-01T00:39:22.544Z,16.6
2023-04-01T00:40:24.608Z,16.6
2023-04-01T00:41:26.360Z,16.6
2023-04-01T00:42:28.061Z,16.5
2023-04-01T00:43:30.126Z,16.7
2023-04-01T00:44:32.219Z,16.6
2023-04-01T00:45:34.475Z,16.5
2023-04-01T00:46:36.834Z,16.6
2023-04-01T00:47:39.168Z,16.6
2023-04-01T00:48:41.470Z,16.7
2023-04-01T00:49:43.578Z,16.6
2023-04-01T00:50:45.482Z,16.6
2023-04-01T00:51:47.539Z,16.6
2023-04-01T00:52:49.656Z,16.6
2023-04-01T00:53:51.621Z,16.6
2023-04-01T00:54:53.746Z,16.7
2023-04-01T00:55:55.636Z,16.5
2023-04-01T00:56:57.749Z,16.6
2023-04-01T00:57:59.750Z,16.7
2023-04-01T00:59:01.882Z,16.7
2023-04-01T01:00:03.967Z,16.7
2023-04-01T01:01:06.190Z,16.6
2023-04-01T01:02:08.568Z,16.7
2023-04-01T01:03:10.774Z,16.7
2023-04-01T01:04:13.076Z,16.6
2023-04-01T01:05:14.793Z,16.6
2023-04-01T01:06:16.877Z,16.6
2023-04-01T01:07:18.969Z,16.6
2023-04-01T01:08:20.676Z,16.6
2023-04-01T01:09:22.776Z,16.6
2023-04-01T01:10:24.652Z,16.5
2023-04-01T01:11:27.975Z,16.6
2023-04-01T01:12:33.700Z,16.7
2023-04-01T01:13:35.642Z,16.6
2023-04-01T01:14:37.810Z,16.7
2023-04-01T01:15:39.922Z,16.7
2023-04-01T01:16:42.210Z,16.7
2023-04-01T01:17:44.678Z,16.5
2023-04-01T01:18:46.823Z,16.6
2023-04-01T01:19:48.517Z,16.6
2023-04-01T01:20:50.820Z,16.7
2023-04-01T01:21:52.685Z,16.7
2023-04-01T01:22:54.386Z,16.7
2023-04-01T01:23:56.258Z,16.7
2023-04-01T01:24:58.350Z,16.7
2023-04-01T01:26:00.665Z,16.7
2023-04-01T01:27:02.776Z,16.7
2023-04-01T01:28:04.899Z,16.7
2023-04-01T01:29:06.819Z,16.7
2023-04-01T01:30:08.722Z,16.7
2023-04-01T01:31:10.842Z,16.6
2023-04-01T01:32:12.946Z,16.7
2023-04-01T01:33:15.266Z,16.6
2023-04-01T01:34:17.221Z,16.6
2023-04-01T01:35:19.389Z,16.6
2023-04-01T01:36:21.667Z,16.6
2023-04-01T01:37:24.059Z,16.7
2023-04-01T01:38:25.947Z,16.6
2023-04-01T01:39:27.690Z,16.6
2023-04-01T01:40:29.389Z,16.7
2023-04-01T01:41:31.311Z,16.7
2023-04-01T01:42:33.217Z,16.7
2023-04-01T01:43:34.937Z,16.7
2023-04-01T01:44:37.062Z,16.7
2023-04-01T01:45:38.987Z,16.7
2023-04-01T01:46:41.038Z,16.7
2023-04-01T01:47:43.282Z,16.7
2023-04-01T01:48:45.892Z,16.7
2023-04-01T01:49:48.058Z,16.7
2023-04-01T01:50:49.991Z,16.7
2023-04-01T01:51:52.109Z,16.7
2023-04-01T01:52:54.184Z,16.6
2023-04-01T01:53:56.269Z,16.7
2023-04-01T01:54:57.971Z,16.8
2023-04-01T01:55:59.882Z,16.7
2023-04-01T01:57:02.070Z,16.7
2023-04-01T01:58:04.334Z,16.7
2023-04-01T01:59:06.256Z,16.8
2023-04-01T02:00:08.169Z,16.7
2023-04-01T02:01:10.122Z,16.7
2023-04-01T02:02:12.429Z,16.6
2023-04-01T02:03:14.336Z,16.7
2023-04-01T02:04:16.895Z,16.7
2023-04-01T02:05:19.147Z,16.7
2023-04-01T02:06:21.238Z,16.7
2023-04-01T02:07:23.113Z,16.7
2023-04-01T02:08:25.061Z,16.7
2023-04-01T02:09:26.937Z,16.8
2023-04-01T02:10:29.231Z,16.7
2023-04-01T02:11:31.130Z,16.7
2023-04-01T02:12:32.872Z,16.8
2023-04-01T02:13:34.962Z,16.8
2023-04-01T02:14:37.065Z,16.8
2023-04-01T02:15:38.614Z,16.7
2023-04-01T02:16:40.969Z,16.8
2023-04-01T02:17:43.126Z,16.7
2023-04-01T02:18:45.561Z,16.7
2023-04-01T02:19:47.736Z,16.7
2023-04-01T02:20:49.622Z,16.7
2023-04-01T02:21:51.742Z,16.7
2023-04-01T02:22:53.604Z,16.7
2023-04-01T02:23:55.303Z,16.7
2023-04-01T02:25:11.745Z,16.7
2023-04-01T02:26:13.814Z,16.7
2023-04-01T02:27:15.370Z,16.7
2023-04-01T02:28:17.496Z,16.7
2023-04-01T02:29:19.581Z,16.7
2023-04-01T02:30:21.478Z,16.7
2023-04-01T02:31:23.628Z,16.7
2023-04-01T02:32:25.572Z,16.7
2023-04-01T02:33:27.360Z,16.7
2023-04-01T02:34:29.446Z,16.8
2023-04-01T02:35:32.079Z,16.7
2023-04-01T02:36:35.008Z,16.8
2023-04-01T02:38:41.887Z,16.8
2023-04-01T02:39:44.025Z,16.8
2023-04-01T02:40:45.746Z,16.7
2023-04-01T02:41:47.451Z,16.8
2023-04-01T02:42:49.516Z,16.8
2023-04-01T02:43:51.401Z,16.8
2023-04-01T02:44:53.385Z,16.8
2023-04-01T02:45:55.539Z,16.7
2023-04-01T02:46:57.488Z,16.7
2023-04-01T02:47:59.788Z,16.7
2023-04-01T02:49:01.933Z,16.7
2023-04-01T02:50:04.039Z,16.7
2023-04-01T02:51:06.000Z,16.7
2023-04-01T02:52:08.110Z,16.7
2023-04-01T02:53:10.211Z,16.7
2023-04-01T02:54:12.113Z,16.7
2023-04-01T02:55:13.647Z,16.7
2023-04-01T02:56:15.546Z,16.7
2023-04-01T02:57:17.561Z,16.8
2023-04-01T02:58:19.732Z,16.8
2023-04-01T02:59:21.812Z,16.8
2023-04-01T03:00:23.887Z,16.7
2023-04-01T03:01:25.894Z,16.8
2023-04-01T03:02:28.193Z,16.8
2023-04-01T03:03:30.546Z,16.8
2023-04-01T03:04:32.897Z,16.7
2023-04-01T03:05:35.695Z,16.8
2023-04-01T03:06:38.048Z,16.8
2023-04-01T03:07:40.146Z,16.7
2023-04-01T03:08:42.225Z,16.7
2023-04-01T03:09:44.363Z,16.7
2023-04-01T03:10:46.230Z,16.7
2023-04-01T03:11:47.987Z,16.8
2023-04-01T03:12:50.135Z,16.8
2023-04-01T03:13:52.016Z,16.8
2023-04-01T03:14:53.889Z,16.7
2023-04-01T03:15:55.968Z,16.7
2023-04-01T03:16:58.026Z,16.8
2023-04-01T03:18:00.364Z,16.7
2023-04-01T03:19:02.609Z,16.7
2023-04-01T03:20:04.716Z,16.7
2023-04-01T03:21:06.442Z,16.8
2023-04-01T03:22:08.388Z,16.8
2023-04-01T03:23:10.476Z,16.8
2023-04-01T03:24:12.394Z,16.7
2023-04-01T03:25:13.964Z,16.7
2023-04-01T03:26:15.858Z,16.7
2023-04-01T03:27:17.753Z,16.6
2023-04-01T03:28:19.624Z,16.7
2023-04-01T03:29:21.727Z,16.7
2023-04-01T03:30:23.704Z,16.7
2023-04-01T03:31:25.891Z,16.7
2023-04-01T03:32:28.531Z,16.7
2023-04-01T03:33:30.758Z,16.7
2023-04-01T03:34:32.859Z,16.7
2023-04-01T03:35:35.398Z,16.6
2023-04-01T03:36:37.675Z,16.7
2023-04-01T03:37:40.096Z,16.7
2023-04-01T03:38:42.171Z,16.6
2023-04-01T03:39:45.195Z,16.6
2023-04-01T03:40:47.268Z,16.7
2023-04-01T03:41:49.327Z,16.7
2023-04-01T03:42:51.478Z,16.6
2023-04-01T03:43:53.520Z,16.6
2023-04-01T03:44:55.449Z,16.6
2023-04-01T03:45:57.629Z,16.7
2023-04-01T03:46:59.922Z,16.7
2023-04-01T03:48:01.677Z,16.6
2023-04-01T03:49:03.856Z,16.5
2023-04-01T03:50:05.746Z,16.6
2023-04-01T03:51:07.635Z,16.6
2023-04-01T03:52:09.766Z,16.6
2023-04-01T03:53:11.924Z,16.7
2023-04-01T03:54:14.082Z,16.7
2023-04-01T03:55:16.167Z,16.7
2023-04-01T03:56:18.251Z,16.7
2023-04-01T03:57:20.513Z,16.5
2023-04-01T03:58:22.765Z,16.6
2023-04-01T03:59:24.862Z,16.6
2023-04-01T04:00:26.963Z,16.6
2023-04-01T04:01:28.855Z,16.6
2023-04-01T04:02:30.907Z,16.7
2023-04-01T04:03:33.272Z,16.7
2023-04-01T04:04:35.521Z,16.6
2023-04-01T04:05:37.866Z,16.6
2023-04-01T04:06:39.956Z,16.7
2023-04-01T04:07:41.859Z,16.6
2023-04-01T04:08:44.035Z,16.7
2023-04-01T04:09:46.151Z,16.5
2023-04-01T04:10:48.249Z,16.6
2023-04-01T04:11:50.314Z,16.5
2023-04-01T04:12:51.993Z,16.5
2023-04-01T04:13:56.102Z,16.6
2023-04-01T04:15:00.121Z,16.5
2023-04-01T04:16:02.321Z,16.7
2023-04-01T04:17:04.289Z,16.6
2023-04-01T04:18:06.221Z,16.5
2023-04-01T04:19:08.638Z,16.6
2023-04-01T04:20:10.535Z,16.6
2023-04-01T04:21:12.626Z,16.6
2023-04-01T04:22:14.341Z,16.5
2023-04-01T04:23:16.431Z,16.5
2023-04-01T04:24:18.601Z,16.6
2023-04-01T04:25:20.722Z,16.5
2023-04-01T04:26:22.461Z,16.6
2023-04-01T04:27:23.973Z,16.6
2023-04-01T04:28:25.871Z,16.6
2023-04-01T04:29:27.967Z,16.7
2023-04-01T04:30:29.875Z,16.5
2023-04-01T04:31:32.016Z,16.6
2023-04-01T04:32:34.092Z,16.6
2023-04-01T04:33:36.152Z,16.5
2023-04-01T04:34:38.264Z,16.6
2023-04-01T04:35:40.507Z,16.6
2023-04-01T04:36:42.340Z,16.5
2023-04-01T04:37:44.231Z,16.5
2023-04-01T04:38:46.158Z,16.5
2023-04-01T04:39:48.336Z,16.5
2023-04-01T04:40:50.215Z,16.5
2023-04-01T04:41:52.286Z,16.6
2023-04-01T04:42:54.196Z,16.6
2023-04-01T04:43:56.082Z,16.6
2023-04-01T04:44:58.038Z,16.5
2023-04-01T04:45:59.928Z,16.5
2023-04-01T04:47:02.125Z,16.5
2023-04-01T04:48:04.384Z,16.5
2023-04-01T04:49:06.668Z,16.5
2023-04-01T04:50:08.809Z,16.5
2023-04-01T04:51:10.955Z,16.5
2023-04-01T04:52:12.846Z,16.5
2023-04-01T04:53:14.800Z,16.5
2023-04-01T04:54:17.052Z,16.5
2023-04-01T04:55:19.192Z,16.4
2023-04-01T04:56:21.272Z,16.5
2023-04-01T04:57:23.369Z,16.5
2023-04-01T04:58:25.379Z,16.5
2023-04-01T04:59:27.496Z,16.5
2023-04-01T05:00:29.572Z,16.4
2023-04-01T05:01:31.521Z,16.6
2023-04-01T05:02:34.006Z,16.5
2023-04-01T05:03:36.683Z,16.5
2023-04-01T05:04:39.052Z,16.4
2023-04-01T05:05:41.170Z,16.4
2023-04-01T05:06:43.094Z,16.5
2023-04-01T05:07:45.183Z,16.4
2023-04-01T05:08:47.264Z,16.5
2023-04-01T05:09:49.233Z,16.5
2023-04-01T05:10:51.366Z,16.5
2023-04-01T05:11:53.478Z,16.6
2023-04-01T05:12:55.379Z,16.5
2023-04-01T05:13:57.231Z,16.6
2023-04-01T05:14:59.521Z,16.5
2023-04-01T05:16:01.438Z,16.5
2023-04-01T05:17:03.689Z,16.5
2023-04-01T05:18:05.948Z,16.5
2023-04-01T05:19:08.021Z,16.4
2023-04-01T05:20:09.950Z,16.4
2023-04-01T05:21:11.888Z,16.5
2023-04-01T05:22:13.809Z,16.5
2023-04-01T05:23:15.693Z,16.5
2023-04-01T05:24:17.625Z,16.5
2023-04-01T05:25:19.522Z,16.4
2023-04-01T05:26:21.675Z,16.4
2023-04-01T05:27:23.741Z,16.4
2023-04-01T05:28:25.491Z,16.5
2023-04-01T05:29:27.388Z,16.4
2023-04-01T05:30:29.465Z,16.4
2023-04-01T05:31:31.444Z,16.5
2023-04-01T05:32:33.923Z,16.5
2023-04-01T05:33:36.215Z,16.4
2023-04-01T05:34:38.307Z,16.3
2023-04-01T05:35:40.323Z,16.4
2023-04-01T05:36:42.694Z,16.5
2023-04-01T05:37:44.636Z,16.5
2023-04-01T05:38:46.781Z,16.5
2023-04-01T05:39:48.975Z,16.5
2023-04-01T05:40:51.100Z,16.5
2023-04-01T05:41:53.265Z,16.5
2023-04-01T05:42:55.151Z,16.5
2023-04-01T05:43:56.836Z,16.4
2023-04-01T05:44:58.754Z,16.5
2023-04-01T05:46:00.887Z,16.3
2023-04-01T05:47:03.105Z,16.4
2023-04-01T05:48:05.122Z,16.5
2023-04-01T05:49:07.399Z,16.4
2023-04-01T05:50:09.501Z,16.3
2023-04-01T05:51:11.388Z,16.4
2023-04-01T05:52:13.510Z,16.5
2023-04-01T05:53:15.627Z,16.4
2023-04-01T05:54:17.896Z,16.5
2023-04-01T05:55:20.093Z,16.5
2023-04-01T05:56:22.246Z,16.4
2023-04-01T05:57:24.586Z,16.4
2023-04-01T05:58:26.905Z,16.4
2023-04-01T05:59:28.843Z,16.3
2023-04-01T06:00:30.933Z,16.4
2023-04-01T06:01:33.037Z,16.5
2023-04-01T06:02:34.846Z,16.5
2023-04-01T06:03:37.523Z,16.4
2023-04-01T06:04:40.718Z,16.4
2023-04-01T06:05:43.046Z,16.4
2023-04-01T06:06:45.191Z,16.4
2023-04-01T06:07:47.153Z,16.3
2023-04-01T06:08:49.071Z,16.4
2023-04-01T06:09:51.141Z,16.4
2023-04-01T06:10:53.235Z,16.5
2023-04-01T06:11:55.373Z,16.4
2023-04-01T06:12:57.533Z,16.4
2023-04-01T06:13:59.389Z,16.4
2023-04-01T06:15:01.288Z,16.4
2023-04-01T06:16:03.550Z,16.4
2023-04-01T06:17:05.371Z,16.5
2023-04-01T06:18:07.603Z,16.4
2023-04-01T06:19:10.022Z,16.4
2023-04-01T06:20:12.391Z,16.5
2023-04-01T06:21:14.300Z,16.4
2023-04-01T06:22:16.236Z,16.4
2023-04-01T06:23:18.403Z,16.4
2023-04-01T06:24:20.518Z,16.4
2023-04-01T06:25:22.458Z,16.4
2023-04-01T06:26:24.599Z,16.4
2023-04-01T06:27:26.750Z,16.4
2023-04-01T06:28:28.953Z,16.4
2023-04-01T06:29:30.890Z,16.4
2023-04-01T06:30:32.903Z,16.3
2023-04-01T06:31:35.054Z,16.4
2023-04-01T06:32:37.512Z,16.4
2023-04-01T06:33:39.828Z,16.5
2023-04-01T06:34:41.926Z,16.4
2023-04-01T06:35:44.358Z,16.4
2023-04-01T06:36:46.808Z,16.4
2023-04-01T06:37:48.646Z,16.4
2023-04-01T06:38:50.644Z,16.4
2023-04-01T06:39:52.560Z,16.4
2023-04-01T06:40:54.473Z,16.4
2023-04-01T06:41:56.150Z,16.4
2023-04-01T06:42:58.313Z,16.4
2023-04-01T06:44:00.753Z,16.4
2023-04-01T06:45:02.752Z,16.4
2023-04-01T06:46:04.716Z,16.4
2023-04-01T06:47:06.985Z,16.3
2023-04-01T06:48:08.992Z,16.4
2023-04-01T06:49:10.874Z,16.3
2023-04-01T06:50:12.754Z,16.4
2023-04-01T06:51:14.674Z,16.3
2023-04-01T06:52:16.601Z,16.4
2023-04-01T06:53:18.825Z,16.3
2023-04-01T06:54:20.556Z,16.3
2023-04-01T06:55:23.434Z,16.4
2023-04-01T06:56:25.631Z,16.4
2023-04-01T06:57:27.682Z,16.3
2023-04-01T06:58:30.540Z,16.3
2023-04-01T06:59:32.703Z,16.3
2023-04-01T07:00:34.608Z,16.4
2023-04-01T07:01:36.785Z,16.4
2023-04-01T07:02:39.464Z,16.4
2023-04-01T07:03:41.554Z,16.4
2023-04-01T07:04:43.658Z,16.3
2023-04-01T07:05:45.829Z,16.5
2023-04-01T07:06:48.049Z,16.3
2023-04-01T07:07:50.219Z,16.4
2023-04-01T07:08:52.099Z,16.4
2023-04-01T07:09:54.329Z,16.3
2023-04-01T07:10:56.295Z,16.4
2023-04-01T07:11:58.361Z,16.2
2023-04-01T07:13:00.294Z,16.4
2023-04-01T07:14:02.413Z,16.3
2023-04-01T07:15:04.370Z,16.4
2023-04-01T07:16:06.346Z,16.4
2023-04-01T07:17:08.450Z,16.4
2023-04-01T07:18:10.908Z,16.3
2023-04-01T07:19:13.228Z,16.3
2023-04-01T07:20:15.349Z,16.3
2023-04-01T07:21:17.508Z,16.3
2023-04-01T07:22:19.659Z,16.3
2023-04-01T07:23:21.819Z,16.4
2023-04-01T07:24:23.892Z,16.4
2023-04-01T07:25:26.298Z,16.4
2023-04-01T07:26:28.462Z,16.3
2023-04-01T07:27:30.600Z,16.3
2023-04-01T07:28:32.710Z,16.3
2023-04-01T07:29:34.843Z,16.4
2023-04-01T07:30:37.042Z,16.3
2023-04-01T07:31:39.328Z,16.3
2023-04-01T07:32:41.517Z,16.3
2023-04-01T07:33:43.742Z,16.4
2023-04-01T07:34:45.659Z,16.4
2023-04-01T07:35:47.781Z,16.3
2023-04-01T07:36:49.983Z,16.4
2023-04-01T07:37:52.091Z,16.3
2023-04-01T07:38:53.674Z,16.3
2023-04-01T07:39:55.948Z,16.3
2023-04-01T07:40:58.698Z,16.4
2023-04-01T07:42:00.811Z,16.3
2023-04-01T07:43:02.753Z,16.3
2023-04-01T07:44:04.676Z,16.2
2023-04-01T07:45:06.810Z,16.5
2023-04-01T07:46:09.130Z,16.3
2023-04-01T07:47:11.464Z,16.3
2023-04-01T07:48:13.380Z,16.4
2023-04-01T07:49:15.141Z,16.3
2023-04-01T07:50:17.301Z,16.3
2023-04-01T07:51:19.483Z,16.4
2023-04-01T07:52:21.434Z,16.3
2023-04-01T07:53:23.515Z,16.3
2023-04-01T07:54:25.595Z,16.4
2023-04-01T07:55:27.300Z,16.4
2023-04-01T07:56:29.567Z,16.4
2023-04-01T07:57:31.587Z,16.3
2023-04-01T07:58:33.816Z,16.3
2023-04-01T07:59:35.893Z,16.4
2023-04-01T08:00:38.020Z,16.4
2023-04-01T08:01:40.185Z,16.3
2023-04-01T08:02:42.524Z,16.4
2023-04-01T08:03:45.164Z,16.3
2023-04-01T08:04:48.082Z,16.3
2023-04-01T08:05:50.362Z,16.4
2023-04-01T08:06:52.327Z,16.3
2023-04-01T08:07:54.238Z,16.4
2023-04-01T08:08:56.174Z,16.4
2023-04-01T08:09:58.290Z,16.3
2023-04-01T08:11:00.390Z,16.3
2023-04-01T08:12:02.539Z,16.3
2023-04-01T08:13:04.110Z,16.3
2023-04-01T08:14:06.234Z,16.3
2023-04-01T08:15:08.314Z,16.4
2023-04-01T08:16:10.345Z,16.3
2023-04-01T08:17:12.581Z,16.3
2023-04-01T08:18:14.695Z,16.3
2023-04-01T08:19:16.824Z,16.2
2023-04-01T08:20:18.769Z,16.3
2023-04-01T08:21:20.877Z,16.4
2023-04-01T08:22:22.842Z,16.3
2023-04-01T08:23:24.814Z,16.2
2023-04-01T08:25:32.530Z,16.3
2023-04-01T08:26:36.142Z,16.3
2023-04-01T08:27:38.259Z,16.3
2023-04-01T08:28:40.196Z,16.4
2023-04-01T08:29:42.091Z,16.3
2023-04-01T08:30:44.029Z,16.3
2023-04-01T08:31:46.072Z,16.3
2023-04-01T08:32:48.413Z,16.5
2023-04-01T08:33:50.764Z,16.3
2023-04-01T08:34:52.673Z,16.4
2023-04-01T08:35:54.657Z,16.3
2023-04-01T08:36:56.658Z,16.4
2023-04-01T08:37:58.752Z,16.2
2023-04-01T08:39:00.977Z,16.3
2023-04-01T08:40:02.961Z,16.2
2023-04-01T08:41:04.853Z,16.3
2023-04-01T08:42:06.754Z,16.3
2023-04-01T08:43:08.714Z,16.3
2023-04-01T08:44:10.535Z,16.3
2023-04-01T08:46:17.543Z,16.3
2023-04-01T08:47:19.711Z,16.4
2023-04-01T08:48:21.903Z,16.3
2023-04-01T08:49:23.828Z,16.4
2023-04-01T08:50:25.734Z,16.3
2023-04-01T08:51:27.421Z,16.3
2023-04-01T08:52:29.507Z,16.3
2023-04-01T08:53:31.588Z,16.4
2023-04-01T08:54:33.681Z,16.3
2023-04-01T08:55:35.846Z,16.3
2023-04-01T08:56:37.951Z,16.3
2023-04-01T08:57:40.056Z,16.2
2023-04-01T08:58:42.218Z,16.3
2023-04-01T08:59:44.284Z,16.4
2023-04-01T09:00:45.963Z,16.3
2023-04-01T09:01:47.904Z,16.3
2023-04-01T09:02:49.852Z,16.3
2023-04-01T09:03:52.564Z,16.3
2023-04-01T09:04:54.725Z,16.3
2023-04-01T09:05:56.608Z,16.3
2023-04-01T09:06:58.705Z,16.4
2023-04-01T09:08:00.799Z,16.3
2023-04-01T09:09:02.920Z,16.3
2023-04-01T09:10:04.405Z,16.3
2023-04-01T09:11:06.511Z,16.4
2023-04-01T09:12:08.694Z,16.3
2023-04-01T09:13:11.023Z,16.3
2023-04-01T09:14:12.967Z,16.3
2023-04-01T09:15:15.052Z,16.4
2023-04-01T09:16:17.229Z,16.3
2023-04-01T09:17:19.380Z,16.3
2023-04-01T09:18:21.657Z,16.3
2023-04-01T09:19:23.652Z,16.3
2023-04-01T09:20:25.744Z,16.2
2023-04-01T09:21:27.826Z,16.4
2023-04-01T09:22:29.766Z,16.3
2023-04-01T09:23:31.864Z,16.2
2023-04-01T09:24:33.755Z,16.3
2023-04-01T09:25:35.866Z,16.3
2023-04-01T09:26:38.035Z,16.3
2023-04-01T09:27:39.909Z,16.3
2023-04-01T09:28:41.407Z,16.3
2023-04-01T09:29:43.623Z,16.3
2023-04-01T09:30:45.757Z,16.3
2023-04-01T09:31:48.036Z,16.3
2023-04-01T09:32:50.804Z,16.3
2023-04-01T09:33:53.073Z,16.3
2023-04-01T09:34:55.259Z,16.3
2023-04-01T09:35:57.349Z,16.3
2023-04-01T09:36:59.655Z,16.3
2023-04-01T09:38:01.794Z,16.3
2023-04-01T09:39:03.747Z,16.3
2023-04-01T09:40:05.809Z,16.3
2023-04-01T09:41:07.726Z,16.4
2023-04-01T09:42:09.625Z,16.3
2023-04-01T09:43:11.385Z,16.3
2023-04-01T09:44:13.466Z,16.4
2023-04-01T09:45:15.586Z,16.2
2023-04-01T09:46:17.786Z,16.4
2023-04-01T09:47:19.901Z,16.3
2023-04-01T09:48:22.134Z,16.4
2023-04-01T09:49:24.387Z,16.3
2023-04-01T09:50:26.580Z,16.2
2023-04-01T09:51:28.292Z,16.2
2023-04-01T09:52:30.391Z,16.4
2023-04-01T09:53:32.502Z,16.3
2023-04-01T09:54:34.647Z,16.4
2023-04-01T09:55:36.349Z,16.4
2023-04-01T09:56:38.428Z,16.3
2023-04-01T09:57:40.346Z,16.4
2023-04-01T09:58:44.283Z,16.3
2023-04-01T09:59:46.328Z,16.3
2023-04-01T10:00:48.528Z,16.3
2023-04-01T10:01:50.798Z,16.4
2023-04-01T10:02:52.993Z,16.3
2023-04-01T10:03:55.378Z,16.4
2023-04-01T10:04:57.303Z,16.3
2023-04-01T10:05:59.393Z,16.3
2023-04-01T10:07:01.660Z,16.3
2023-04-01T10:08:03.624Z,16.3
2023-04-01T10:09:05.591Z,16.3
2023-04-01T10:10:07.712Z,16.3
2023-04-01T10:11:09.696Z,16.2
2023-04-01T10:12:11.832Z,16.3
2023-04-01T10:13:13.768Z,16.3
2023-04-01T10:14:15.842Z,16.3
2023-04-01T10:15:17.833Z,16.3
2023-04-01T10:16:19.946Z,16.3
2023-04-01T10:17:22.165Z,16.3
2023-04-01T10:18:24.318Z,16.3
2023-04-01T10:19:26.401Z,16.4
2023-04-01T10:20:28.347Z,16.3
2023-04-01T10:21:30.542Z,16.3
2023-04-01T10:22:32.345Z,16.4
2023-04-01T10:23:34.104Z,16.2
2023-04-01T10:24:36.263Z,16.3
2023-04-01T10:25:38.354Z,16.3
2023-04-01T10:26:40.273Z,16.2
2023-04-01T10:27:42.392Z,16.3
2023-04-01T10:28:44.494Z,16.3
2023-04-01T10:29:46.399Z,16.3
2023-04-01T10:30:48.141Z,16.3
2023-04-01T10:31:50.307Z,16.3
2023-04-01T10:32:52.644Z,16.3
2023-04-01T10:33:54.842Z,16.4
2023-04-01T10:34:56.807Z,16.3
2023-04-01T10:35:58.853Z,16.4
2023-04-01T10:37:01.032Z,16.3
2023-04-01T10:38:03.019Z,16.4
2023-04-01T10:39:05.118Z,16.3
2023-04-01T10:40:07.257Z,16.3
2023-04-01T10:41:09.357Z,16.3
2023-04-01T10:42:11.054Z,16.3
2023-04-01T10:43:13.114Z,16.2
2023-04-01T10:44:14.809Z,16.3
2023-04-01T10:45:16.873Z,16.3
2023-04-01T10:46:18.851Z,16.3
2023-04-01T10:47:21.299Z,16.3
2023-04-01T10:48:23.526Z,16.3
2023-04-01T10:49:25.601Z,16.3
2023-04-01T10:50:27.533Z,16.2
2023-04-01T10:51:29.662Z,16.3
2023-04-01T10:52:31.832Z,16.2
2023-04-01T10:53:33.909Z,16.3
2023-04-01T10:54:36.192Z,16.3
2023-04-01T10:55:38.353Z,16.3
2023-04-01T10:56:40.315Z,16.3
2023-04-01T10:57:42.439Z,16.4
2023-04-01T10:58:44.546Z,16.3
2023-04-01T10:59:46.541Z,16.3
2023-04-01T11:00:48.413Z,16.3
2023-04-01T11:02:56.070Z,16.4
2023-04-01T11:03:58.811Z,16.4
2023-04-01T11:05:01.503Z,16.4
2023-04-01T11:06:03.404Z,16.3
2023-04-01T11:07:05.553Z,16.3
2023-04-01T11:08:07.970Z,16.4
2023-04-01T11:09:10.106Z,16.3
2023-04-01T11:10:12.211Z,16.3
2023-04-01T11:11:14.401Z,16.3
2023-04-01T11:12:16.696Z,16.3
2023-04-01T11:13:18.703Z,16.3
2023-04-01T11:14:20.840Z,16.3
2023-04-01T11:15:22.979Z,16.3
2023-04-01T11:16:25.042Z,16.3
2023-04-01T11:17:27.419Z,16.3
2023-04-01T11:18:29.749Z,16.3
2023-04-01T11:19:31.831Z,16.2
2023-04-01T11:20:33.895Z,16.3
2023-04-01T11:21:35.772Z,16.3
2023-04-01T11:22:37.878Z,16.4
2023-04-01T11:23:40.046Z,16.4
2023-04-01T11:24:42.126Z,16.2
2023-04-01T11:25:44.010Z,16.3
2023-04-01T11:26:45.912Z,16.3
2023-04-01T11:27:48.153Z,16.3
2023-04-01T11:28:50.235Z,16.4
2023-04-01T11:30:57.278Z,16.4
2023-04-01T11:31:59.476Z,16.3
2023-04-01T11:33:01.492Z,16.4
2023-04-01T11:34:03.666Z,16.4
2023-04-01T11:35:05.592Z,16.4
2023-04-01T11:36:07.471Z,16.4
2023-04-01T11:37:09.418Z,16.4
2023-04-01T11:38:11.670Z,16.4
2023-04-01T11:39:13.826Z,16.3
2023-04-01T11:40:15.964Z,16.3
2023-04-01T11:41:17.898Z,16.3
2023-04-01T11:42:20.066Z,16.4
2023-04-01T11:44:26.942Z,16.3
2023-04-01T11:45:29.037Z,16.4
2023-04-01T11:46:31.301Z,16.4
2023-04-01T11:47:33.888Z,16.2
2023-04-01T11:48:35.960Z,16.2
2023-04-01T11:49:38.114Z,16.3
2023-04-01T11:50:40.224Z,16.2
2023-04-01T11:51:42.112Z,16.3
2023-04-01T11:52:44.226Z,16.3
2023-04-01T11:53:46.207Z,16.3
2023-04-01T11:54:48.373Z,16.3
2023-04-01T11:55:50.935Z,16.3
2023-04-01T11:56:53.192Z,16.2
2023-04-01T11:57:55.440Z,16.2
2023-04-01T11:58:57.364Z,16.2
2023-04-01T11:59:59.464Z,16.2
2023-04-01T12:01:01.565Z,16.3
2023-04-01T12:02:04.031Z,16.1
2023-04-01T12:03:06.417Z,16.2
2023-04-01T12:04:09.649Z,16.2
2023-04-01T12:05:12.520Z,16.2
2023-04-01T12:06:14.670Z,16.2
2023-04-01T12:07:16.587Z,16.3
2023-04-01T12:08:18.279Z,16.2
2023-04-01T12:09:20.195Z,16.1
2023-04-01T12:10:22.390Z,16.1
2023-04-01T12:11:24.369Z,16.2
2023-04-01T12:12:26.260Z,16.2
2023-04-01T12:13:28.920Z,16.1
2023-04-01T12:14:30.996Z,16.1
2023-04-01T12:15:33.511Z,16.1
2023-04-01T12:16:37.543Z,16.1
2023-04-01T12:17:39.922Z,16.1
2023-04-01T12:18:41.969Z,15.9
2023-04-01T12:19:44.061Z,16
2023-04-01T12:20:45.796Z,16
2023-04-01T12:21:47.675Z,16.1
2023-04-01T12:22:49.741Z,15.9
2023-04-01T12:23:51.921Z,16
2023-04-01T12:24:53.847Z,16
2023-04-01T12:25:56.016Z,16.1
2023-04-01T12:26:57.708Z,16.1
2023-04-01T12:27:59.805Z,16.1
2023-04-01T12:29:01.864Z,15.9
2023-04-01T12:30:03.941Z,15.9
2023-04-01T12:31:05.886Z,16
2023-04-01T12:32:07.888Z,15.8
2023-04-01T12:33:10.370Z,16
2023-04-01T12:34:12.747Z,15.9
2023-04-01T12:35:14.857Z,16.1
2023-04-01T12:36:16.594Z,16
2023-04-01T12:37:18.500Z,16
2023-04-01T12:38:22.019Z,15.9
2023-04-01T12:39:24.350Z,15.8
2023-04-01T12:40:26.054Z,15.9
2023-04-01T12:41:28.280Z,16
2023-04-01T12:42:30.383Z,16
2023-04-01T12:43:32.286Z,16
2023-04-01T12:44:34.040Z,16
2023-04-01T12:45:36.587Z,15.8
2023-04-01T12:46:38.841Z,15.8
2023-04-01T12:47:41.039Z,15.8
2023-04-01T12:48:43.119Z,15.9
2023-04-01T12:49:45.001Z,15.8
2023-04-01T12:50:46.722Z,15.8
2023-04-01T12:51:48.505Z,15.9
2023-04-01T12:52:50.646Z,15.8
2023-04-01T12:53:52.531Z,15.9
2023-04-01T12:54:54.775Z,15.9
2023-04-01T12:55:56.996Z,15.8
2023-04-01T12:56:59.242Z,15.8
2023-04-01T12:58:01.480Z,15.8
2023-04-01T12:59:03.408Z,15.8
2023-04-01T13:00:05.128Z,15.9
2023-04-01T13:01:06.898Z,15.8
2023-04-01T13:02:08.921Z,15.8
2023-04-01T13:03:11.052Z,15.9
2023-04-01T13:04:13.125Z,15.9
2023-04-01T13:05:15.637Z,15.9
2023-04-01T13:07:22.528Z,15.8
2023-04-01T13:08:24.638Z,15.9
2023-04-01T13:09:26.360Z,15.8
2023-04-01T13:10:28.506Z,15.9
2023-04-01T13:11:30.414Z,15.8
2023-04-01T13:12:32.467Z,15.8
2023-04-01T13:13:34.496Z,15.8
2023-04-01T13:14:36.626Z,15.8
2023-04-01T13:15:38.607Z,15.8
2023-04-01T13:16:40.992Z,15.9
2023-04-01T13:17:42.729Z,15.9
2023-04-01T13:18:44.834Z,15.8
2023-04-01T13:20:51.757Z,15.9
2023-04-01T13:21:54.016Z,15.9
2023-04-01T13:22:55.996Z,15.8
2023-04-01T13:23:57.890Z,15.9
2023-04-01T13:24:59.987Z,15.9
2023-04-01T13:27:07.081Z,15.8
2023-04-01T13:28:09.278Z,15.9
2023-04-01T13:29:11.174Z,15.8
2023-04-01T13:30:13.277Z,15.8
2023-04-01T13:31:15.537Z,15.9
2023-04-01T13:32:17.460Z,15.8
2023-04-01T13:33:19.501Z,15.8
2023-04-01T13:34:21.888Z,15.9
2023-04-01T13:35:23.944Z,15.8
2023-04-01T13:36:25.903Z,15.8
2023-04-01T13:37:28.000Z,15.9
2023-04-01T13:38:29.929Z,15.8
2023-04-01T13:39:32.034Z,15.9
2023-04-01T13:40:34.598Z,15.8
2023-04-01T13:41:37.127Z,15.8
2023-04-01T13:42:39.254Z,15.9
2023-04-01T13:43:41.466Z,15.9
2023-04-01T13:44:43.214Z,15.9
2023-04-01T13:45:45.334Z,15.8
2023-04-01T13:46:47.294Z,15.8
2023-04-01T13:47:49.268Z,15.9
2023-04-01T13:48:51.585Z,15.9
2023-04-01T13:49:53.308Z,15.8
2023-04-01T13:50:55.206Z,15.8
2023-04-01T13:51:57.094Z,15.8
2023-04-01T13:52:58.810Z,15.8
2023-04-01T13:54:00.946Z,15.8
2023-04-01T13:55:03.050Z,15.8
2023-04-01T13:56:04.991Z,15.9
2023-04-01T13:57:07.149Z,15.8